createdAt,value
2023-04-16T00:01:35.752Z,39.82
2023-04-16T00:04:03.111Z,39.88
2023-04-16T00:06:30.419Z,39.89
2023-04-16T00:08:57.293Z,39.69
2023-04-16T00:11:24.133Z,39.89
2023-04-16T00:13:51.041Z,39.67
2023-04-16T00:16:17.905Z,39.91
2023-04-16T00:18:44.730Z,39.86
2023-04-16T00:21:11.685Z,39.71
2023-04-16T00:23:38.499Z,39.67
2023-04-16T00:26:05.295Z,39.58
2023-04-16T00:28:32.167Z,39.73
2023-04-16T00:30:59.087Z,39.90
2023-04-16T00:33:26.104Z,39.70
2023-04-16T00:35:52.942Z,39.57
2023-04-16T00:38:19.740Z,39.81
2023-04-16T00:40:46.584Z,39.74
2023-04-16T00:43:21.884Z,39.85
2023-04-16T00:45:48.802Z,39.79
2023-04-16T00:48:15.578Z,39.60
2023-04-16T00:50:42.622Z,39.92
2023-04-16T00:53:09.421Z,39.87
2023-04-16T00:55:36.326Z,39.73
2023-04-16T00:58:03.842Z,39.66
2023-04-16T01:00:30.669Z,39.53
2023-04-16T01:02:57.742Z,39.89
2023-04-16T01:05:24.726Z,39.53
2023-04-16T01:07:52.128Z,39.24
2023-04-16T01:10:19.049Z,39.29
2023-04-16T01:12:45.828Z,39.33
2023-04-16T01:15:12.756Z,39.21
2023-04-16T01:17:39.524Z,39.38
2023-04-16T01:20:06.794Z,39.05
2023-04-16T01:22:33.577Z,39.24
2023-04-16T01:25:00.615Z,39.63
2023-04-16T01:27:27.317Z,39.49
2023-04-16T01:29:54.154Z,39.32
2023-04-16T01:32:21.006Z,39.53
2023-04-16T01:34:47.728Z,39.75
2023-04-16T01:37:14.573Z,39.43
2023-04-16T01:39:41.353Z,39.48
2023-04-16T01:42:08.139Z,39.31
2023-04-16T01:44:34.932Z,39.25
2023-04-16T01:47:01.810Z,39.55
2023-04-16T01:49:29.046Z,39.44
2023-04-16T01:51:55.767Z,39.31
2023-04-16T01:54:22.543Z,39.48
2023-04-16T01:56:49.284Z,39.51
2023-04-16T01:59:16.023Z,39.24
2023-04-16T02:01:42.838Z,39.48
2023-04-16T02:04:10.099Z,39.50
2023-04-16T02:06:36.960Z,39.16
2023-04-16T02:09:03.825Z,39.35
2023-04-16T02:11:30.644Z,39.37
2023-04-16T02:13:57.516Z,39.18
2023-04-16T02:16:24.354Z,39.37
2023-04-16T02:18:51.072Z,39.14
2023-04-16T02:21:17.936Z,39.26
2023-04-16T02:23:44.706Z,39.18
2023-04-16T02:26:11.504Z,39.58
2023-04-16T02:28:38.375Z,39.16
2023-04-16T02:31:05.409Z,39.38
2023-04-16T02:33:32.169Z,39.20
2023-04-16T02:35:59.161Z,39.14
2023-04-16T02:38:25.961Z,39.14
2023-04-16T02:40:52.678Z,39.08
2023-04-16T02:43:19.495Z,39.05
2023-04-16T02:45:46.315Z,39.42
2023-04-16T02:48:13.103Z,39.31
2023-04-16T02:50:39.989Z,39.11
2023-04-16T02:53:06.819Z,39.18
2023-04-16T02:55:33.641Z,39.05
2023-04-16T02:58:00.471Z,39.33
2023-04-16T03:00:27.259Z,39.43
2023-04-16T03:02:54.140Z,39.01
2023-04-16T03:05:21.062Z,38.82
2023-04-16T03:07:47.978Z,39.01
2023-04-16T03:10:14.741Z,38.97
2023-04-16T03:12:41.508Z,39.00
2023-04-16T03:15:08.740Z,39.21
2023-04-16T03:17:35.559Z,39.25
2023-04-16T03:20:02.392Z,39.24
2023-04-16T03:22:29.132Z,39.45
2023-04-16T03:24:55.940Z,39.08
2023-04-16T03:27:22.766Z,38.99
2023-04-16T03:29:49.614Z,39.24
2023-04-16T03:32:16.366Z,39.13
2023-04-16T03:34:43.180Z,39.14
2023-04-16T03:37:09.895Z,39.09
2023-04-16T03:39:36.745Z,38.94
2023-04-16T03:42:03.712Z,39.40
2023-04-16T03:44:30.455Z,39.24
2023-04-16T03:46:57.291Z,38.97
2023-04-16T03:49:24.186Z,38.85
2023-04-16T03:51:51.100Z,38.70
2023-04-16T03:54:18.410Z,39.17
2023-04-16T03:56:45.971Z,39.12
2023-04-16T03:59:12.719Z,39.05
2023-04-16T04:01:39.568Z,39.10
2023-04-16T04:04:06.481Z,39.14
2023-04-16T04:06:33.332Z,39.24
2023-04-16T04:09:00.113Z,39.01
2023-04-16T04:11:26.832Z,39.18
2023-04-16T04:13:53.582Z,39.17
2023-04-16T04:16:20.338Z,39.16
2023-04-16T04:18:47.246Z,38.87
2023-04-16T04:21:13.990Z,39.04
2023-04-16T04:23:40.802Z,39.10
2023-04-16T04:26:07.784Z,39.31
2023-04-16T04:28:34.779Z,38.81
2023-04-16T04:31:01.677Z,38.82
2023-04-16T04:33:28.788Z,39.22
2023-04-16T04:35:55.551Z,38.89
2023-04-16T04:38:22.557Z,39.11
2023-04-16T04:40:49.336Z,38.84
2023-04-16T04:43:16.114Z,39.12
2023-04-16T04:45:42.953Z,39.08
2023-04-16T04:48:09.762Z,39.11
2023-04-16T04:50:36.771Z,39.02
2023-04-16T04:53:03.539Z,38.97
2023-04-16T04:55:30.260Z,39.34
2023-04-16T04:57:57.088Z,39.03
2023-04-16T05:00:23.914Z,38.83
2023-04-16T05:02:50.807Z,39.06
2023-04-16T05:05:17.794Z,39.14
2023-04-16T05:07:44.639Z,38.87
2023-04-16T05:10:14.390Z,39.20
2023-04-16T05:12:41.217Z,39.24
2023-04-16T05:15:08.627Z,39.11
2023-04-16T05:17:35.318Z,39.12
2023-04-16T05:20:02.110Z,39.18
2023-04-16T05:22:29.245Z,39.51
2023-04-16T05:24:56.010Z,39.43
2023-04-16T05:27:23.134Z,39.16
2023-04-16T05:29:49.975Z,38.90
2023-04-16T05:32:16.798Z,39.02
2023-04-16T05:34:43.656Z,39.15
2023-04-16T05:37:10.434Z,39.26
2023-04-16T05:39:37.161Z,39.06
2023-04-16T05:42:04.035Z,39.25
2023-04-16T05:44:30.763Z,40.97
2023-04-16T05:46:57.467Z,41.27
2023-04-16T05:49:24.159Z,41.15
2023-04-16T05:51:53.298Z,41.29
2023-04-16T05:54:20.047Z,40.98
2023-04-16T05:56:47.429Z,41.60
2023-04-16T05:59:14.219Z,41.31
2023-04-16T06:01:41.189Z,41.49
2023-04-16T06:04:08.002Z,41.89
2023-04-16T06:06:34.791Z,42.19
2023-04-16T06:09:01.609Z,42.16
2023-04-16T06:11:29.971Z,41.82
2023-04-16T06:13:56.640Z,42.03
2023-04-16T06:16:23.414Z,42.21
2023-04-16T06:18:50.174Z,42.02
2023-04-16T06:21:17.004Z,41.67
2023-04-16T06:23:43.750Z,41.62
2023-04-16T06:26:11.518Z,41.77
2023-04-16T06:28:38.256Z,42.00
2023-04-16T06:31:05.057Z,42.15
2023-04-16T06:33:31.769Z,41.52
2023-04-16T06:35:58.448Z,41.91
2023-04-16T06:38:25.121Z,41.74
2023-04-16T06:40:51.829Z,41.63
2023-04-16T06:43:18.598Z,41.73
2023-04-16T06:45:45.356Z,41.71
2023-04-16T06:48:12.095Z,41.39
2023-04-16T06:50:38.821Z,41.56
2023-04-16T06:53:05.586Z,41.73
2023-04-16T06:55:32.361Z,41.82
2023-04-16T06:57:59.116Z,41.62
2023-04-16T07:00:25.939Z,41.37
2023-04-16T07:02:52.792Z,41.73
2023-04-16T07:05:19.644Z,41.64
2023-04-16T07:07:46.365Z,41.39
2023-04-16T07:10:13.128Z,41.31
2023-04-16T07:12:39.899Z,41.28
2023-04-16T07:15:07.569Z,41.34
2023-04-16T07:17:34.357Z,41.36
2023-04-16T07:20:01.214Z,41.24
2023-04-16T07:22:27.953Z,41.25
2023-04-16T07:24:54.659Z,41.03
2023-04-16T07:27:21.347Z,41.37
2023-04-16T07:29:48.084Z,41.02
2023-04-16T07:32:15.633Z,41.12
2023-04-16T07:34:42.597Z,40.90
2023-04-16T07:37:09.357Z,41.02
2023-04-16T07:39:36.088Z,41.45
2023-04-16T07:42:02.867Z,40.85
2023-04-16T07:44:29.850Z,41.18
2023-04-16T07:46:56.649Z,41.28
2023-04-16T07:49:23.502Z,41.38
2023-04-16T07:51:50.280Z,41.18
2023-04-16T07:54:17.043Z,41.24
2023-04-16T07:56:43.782Z,40.96
2023-04-16T07:59:21.907Z,40.81
2023-04-16T08:01:50.162Z,40.88
2023-04-16T08:04:17.014Z,40.95
2023-04-16T08:06:43.900Z,40.88
2023-04-16T08:09:10.867Z,40.79
2023-04-16T08:11:37.788Z,41.07
2023-04-16T08:14:04.550Z,41.17
2023-04-16T08:16:31.304Z,41.07
2023-04-16T08:18:58.095Z,41.02
2023-04-16T08:21:24.903Z,40.83
2023-04-16T08:23:51.565Z,40.70
2023-04-16T08:26:18.392Z,40.75
2023-04-16T08:28:45.130Z,40.42
2023-04-16T08:31:11.966Z,40.51
2023-04-16T08:33:38.965Z,40.57
2023-04-16T08:36:05.998Z,40.85
2023-04-16T08:38:32.674Z,40.71
2023-04-16T08:41:01.737Z,40.78
2023-04-16T08:43:29.341Z,40.67
2023-04-16T08:45:56.112Z,40.34
2023-04-16T08:48:22.917Z,40.94
2023-04-16T08:50:52.220Z,40.53
2023-04-16T08:53:19.375Z,40.38
2023-04-16T08:55:49.611Z,40.43
2023-04-16T08:58:19.891Z,40.51
2023-04-16T09:00:47.531Z,40.50
2023-04-16T09:03:14.354Z,43.00
2023-04-16T09:05:42.030Z,42.81
2023-04-16T09:08:09.011Z,43.42
2023-04-16T09:10:35.792Z,44.56
2023-04-16T09:13:02.485Z,44.12
2023-04-16T09:15:29.259Z,44.22
2023-04-16T09:17:55.991Z,44.16
2023-04-16T09:20:22.803Z,44.12
2023-04-16T09:22:49.629Z,44.81
2023-04-16T09:25:16.357Z,44.63
2023-04-16T09:27:43.177Z,44.99
2023-04-16T09:30:26.141Z,44.40
2023-04-16T09:32:53.720Z,44.14
2023-04-16T09:35:20.621Z,44.09
2023-04-16T09:37:57.426Z,44.59
2023-04-16T09:40:25.070Z,44.08
2023-04-16T09:42:52.296Z,44.54
2023-04-16T09:45:19.083Z,44.55
2023-04-16T09:47:46.000Z,44.18
2023-04-16T09:50:18.199Z,44.24
2023-04-16T09:52:48.050Z,44.08
2023-04-16T09:55:14.746Z,44.25
2023-04-16T09:57:41.424Z,43.90
2023-04-16T10:00:09.233Z,44.07
2023-04-16T10:02:36.334Z,43.69
2023-04-16T10:05:03.504Z,43.96
2023-04-16T10:07:34.051Z,43.63
2023-04-16T10:10:00.855Z,43.67
2023-04-16T10:12:27.535Z,43.35
2023-04-16T10:14:54.294Z,43.49
2023-04-16T10:17:21.381Z,43.67
2023-04-16T10:19:48.111Z,43.35
2023-04-16T10:22:14.917Z,43.96
2023-04-16T10:24:41.647Z,43.48
2023-04-16T10:27:08.356Z,43.21
2023-04-16T10:29:35.032Z,43.25
2023-04-16T10:32:01.845Z,42.98
2023-04-16T10:34:28.525Z,43.40
2023-04-16T10:36:55.276Z,43.41
2023-04-16T10:39:27.301Z,43.37
2023-04-16T10:42:13.134Z,42.90
2023-04-16T10:44:45.307Z,43.35
2023-04-16T10:47:13.144Z,43.23
2023-04-16T10:49:40.268Z,43.06
2023-04-16T10:52:11.328Z,42.85
2023-04-16T10:54:38.103Z,42.48
2023-04-16T10:57:09.874Z,42.12
2023-04-16T10:59:37.509Z,42.04
2023-04-16T11:02:09.035Z,41.88
2023-04-16T11:04:37.203Z,41.71
2023-04-16T11:07:06.621Z,41.60
2023-04-16T11:09:45.637Z,41.46
2023-04-16T11:12:22.483Z,41.70
2023-04-16T11:15:11.432Z,41.67
2023-04-16T11:17:39.791Z,41.71
2023-04-16T11:20:17.723Z,41.35
2023-04-16T11:22:51.234Z,41.44
2023-04-16T11:25:21.827Z,41.30
2023-04-16T11:27:49.127Z,41.31
2023-04-16T11:30:15.939Z,40.99
2023-04-16T11:32:43.732Z,41.53
2023-04-16T11:35:14.975Z,41.55
2023-04-16T11:37:41.953Z,41.23
2023-04-16T11:40:09.153Z,40.91
2023-04-16T11:42:36.805Z,40.98
2023-04-16T11:45:03.982Z,41.63
2023-04-16T11:47:31.165Z,41.24
2023-04-16T11:49:58.384Z,41.33
2023-04-16T11:52:32.110Z,40.73
2023-04-16T11:54:59.201Z,41.13
2023-04-16T11:57:29.431Z,40.75
2023-04-16T12:00:01.742Z,41.02
2023-04-16T12:02:40.070Z,41.07
2023-04-16T12:05:26.029Z,41.20
2023-04-16T12:07:52.752Z,41.48
2023-04-16T12:10:19.558Z,41.74
2023-04-16T12:12:46.254Z,41.93
2023-04-16T12:15:13.028Z,41.87
2023-04-16T12:17:39.816Z,41.68
2023-04-16T12:20:10.702Z,41.33
2023-04-16T12:22:38.546Z,41.40
2023-04-16T12:25:06.619Z,42.15
2023-04-16T12:27:52.215Z,42.26
2023-04-16T12:30:21.594Z,42.48
2023-04-16T12:32:49.459Z,42.76
2023-04-16T12:35:32.389Z,43.05
2023-04-16T12:37:59.470Z,43.89
2023-04-16T12:40:26.406Z,43.76
2023-04-16T12:42:53.206Z,45.32
2023-04-16T12:45:20.014Z,45.03
2023-04-16T12:47:47.225Z,43.99
2023-04-16T12:50:14.050Z,43.24
2023-04-16T12:52:40.761Z,43.03
2023-04-16T12:55:07.792Z,41.63
2023-04-16T12:57:34.519Z,41.16
2023-04-16T13:00:01.274Z,41.38
2023-04-16T13:02:28.166Z,40.77
2023-04-16T13:04:54.947Z,40.62
2023-04-16T13:07:21.736Z,40.41
2023-04-16T13:09:48.429Z,40.33
2023-04-16T13:12:15.109Z,40.44
2023-04-16T13:14:42.805Z,40.77
2023-04-16T13:17:11.329Z,40.40
2023-04-16T13:19:38.031Z,40.93
2023-04-16T13:22:04.800Z,40.88
2023-04-16T13:24:31.594Z,41.14
2023-04-16T13:26:58.370Z,41.75
2023-04-16T13:29:25.122Z,41.55
2023-04-16T13:34:18.553Z,41.90
2023-04-16T13:36:45.307Z,42.20
2023-04-16T13:39:12.351Z,41.76
2023-04-16T13:41:39.372Z,42.22
2023-04-16T13:44:06.623Z,42.55
2023-04-16T13:46:33.806Z,42.23
2023-04-16T13:49:00.750Z,42.23
2023-04-16T13:51:27.763Z,41.94
2023-04-16T13:53:54.990Z,42.45
2023-04-16T13:56:22.219Z,42.46
2023-04-16T13:58:48.934Z,42.45
2023-04-16T14:01:16.077Z,42.07
2023-04-16T14:03:47.023Z,42.12
2023-04-16T14:06:14.109Z,42.10
2023-04-16T14:08:41.185Z,42.46
2023-04-16T14:11:08.303Z,42.42
2023-04-16T14:16:05.699Z,42.15
2023-04-16T14:18:32.588Z,41.95
2023-04-16T14:20:59.435Z,41.79
2023-04-16T14:23:29.665Z,41.92
2023-04-16T14:25:56.877Z,41.71
2023-04-16T14:28:23.786Z,42.02
2023-04-16T14:30:51.022Z,41.89
2023-04-16T14:33:17.785Z,41.88
2023-04-16T14:35:49.913Z,42.01
2023-04-16T14:38:16.780Z,41.71
2023-04-16T14:40:44.068Z,41.89
2023-04-16T14:43:11.021Z,41.99
2023-04-16T14:45:37.806Z,41.77
2023-04-16T14:48:08.191Z,42.01
2023-04-16T14:50:35.377Z,41.90
2023-04-16T14:53:02.471Z,41.58
2023-04-16T14:55:29.890Z,41.58
2023-04-16T14:57:56.726Z,41.99
2023-04-16T15:00:26.861Z,41.92
2023-04-16T15:02:54.729Z,41.67
2023-04-16T15:05:21.892Z,41.53
2023-04-16T15:07:48.765Z,41.76
2023-04-16T15:10:15.851Z,41.61
2023-04-16T15:12:42.494Z,41.48
2023-04-16T15:15:09.911Z,41.34
2023-04-16T15:17:37.251Z,41.43
2023-04-16T15:20:04.664Z,41.06
2023-04-16T15:22:31.685Z,41.32
2023-04-16T15:24:58.684Z,41.26
2023-04-16T15:27:25.582Z,41.48
2023-04-16T15:29:52.360Z,41.17
2023-04-16T15:32:19.330Z,41.53
2023-04-16T15:34:46.158Z,41.59
2023-04-16T15:37:13.487Z,41.33
2023-04-16T15:39:40.419Z,41.31
2023-04-16T15:42:08.715Z,41.36
2023-04-16T15:44:35.706Z,41.86
2023-04-16T15:47:04.519Z,41.69
2023-04-16T15:49:31.275Z,41.93
2023-04-16T15:51:58.951Z,41.68
2023-04-16T15:54:27.207Z,41.34
2023-04-16T15:56:53.998Z,41.62
2023-04-16T15:59:20.882Z,41.37
2023-04-16T16:01:47.835Z,41.67
2023-04-16T16:04:14.637Z,41.35
2023-04-16T16:06:41.839Z,41.84
2023-04-16T16:09:08.992Z,41.72
2023-04-16T16:11:36.658Z,41.84
2023-04-16T16:14:03.617Z,41.56
2023-04-16T16:16:30.582Z,41.68
2023-04-16T16:18:57.344Z,41.84
2023-04-16T16:21:24.335Z,41.36
2023-04-16T16:23:51.106Z,41.57
2023-04-16T16:26:18.225Z,41.31
2023-04-16T16:28:45.075Z,41.75
2023-04-16T16:31:11.910Z,41.49
2023-04-16T16:33:40.291Z,41.80
2023-04-16T16:36:10.482Z,41.26
2023-04-16T16:38:37.486Z,41.03
2023-04-16T16:41:04.509Z,41.06
2023-04-16T16:43:32.306Z,40.59
2023-04-16T16:45:59.023Z,40.92
2023-04-16T16:48:25.775Z,40.39
2023-04-16T16:50:52.584Z,40.06
2023-04-16T16:53:19.439Z,40.12
2023-04-16T16:55:46.169Z,40.49
2023-04-16T16:58:12.973Z,40.87
2023-04-16T17:00:39.836Z,41.83
2023-04-16T17:03:06.851Z,41.49
2023-04-16T17:05:33.654Z,42.68
2023-04-16T17:08:00.548Z,43.05
2023-04-16T17:10:27.323Z,43.10
2023-04-16T17:12:54.133Z,42.71
2023-04-16T17:15:21.865Z,43.09
2023-04-16T17:17:48.902Z,43.38
2023-04-16T17:20:19.072Z,43.12
2023-04-16T17:22:45.795Z,43.25
2023-04-16T17:25:12.838Z,43.49
2023-04-16T17:27:39.637Z,43.12
2023-04-16T17:30:07.478Z,43.87
2023-04-16T17:32:34.523Z,43.40
2023-04-16T17:35:02.157Z,43.50
2023-04-16T17:37:29.221Z,43.17
2023-04-16T17:39:56.457Z,43.54
2023-04-16T17:42:23.953Z,43.15
2023-04-16T17:44:50.657Z,43.30
2023-04-16T17:47:17.387Z,43.48
2023-04-16T17:49:44.146Z,42.75
2023-04-16T17:52:10.916Z,43.08
2023-04-16T17:54:37.730Z,43.11
2023-04-16T17:57:04.425Z,42.93
2023-04-16T17:59:31.237Z,42.80
2023-04-16T18:01:58.182Z,43.13
2023-04-16T18:04:25.302Z,43.00
2023-04-16T18:06:52.249Z,42.72
2023-04-16T18:09:18.965Z,42.44
2023-04-16T18:11:45.677Z,42.34
2023-04-16T18:14:12.588Z,42.11
2023-04-16T18:16:39.354Z,42.11
2023-04-16T18:19:06.182Z,42.65
2023-04-16T18:21:33.003Z,42.30
2023-04-16T18:23:59.761Z,42.04
2023-04-16T18:26:29.627Z,42.00
2023-04-16T18:28:56.877Z,42.30
2023-04-16T18:31:23.858Z,42.54
2023-04-16T18:33:57.591Z,42.27
2023-04-16T18:36:25.447Z,42.34
2023-04-16T18:39:00.228Z,42.61
2023-04-16T18:41:28.954Z,42.03
2023-04-16T18:43:55.938Z,42.17
2023-04-16T18:46:22.775Z,42.05
2023-04-16T18:48:49.674Z,42.08
2023-04-16T18:51:16.804Z,42.05
2023-04-16T18:53:44.394Z,41.96
2023-04-16T18:56:11.347Z,41.97
2023-04-16T18:58:38.134Z,41.79
2023-04-16T19:01:04.908Z,41.96
2023-04-16T19:03:31.798Z,41.79
2023-04-16T19:05:58.563Z,42.16
2023-04-16T19:08:25.328Z,41.99
2023-04-16T19:10:52.035Z,41.83
2023-04-16T19:13:18.685Z,42.02
2023-04-16T19:15:45.481Z,42.10
2023-04-16T19:18:12.196Z,41.79
2023-04-16T19:20:38.915Z,42.08
2023-04-16T19:23:05.778Z,41.94
2023-04-16T19:25:32.680Z,42.14
2023-04-16T19:27:59.561Z,41.70
2023-04-16T19:30:26.388Z,42.02
2023-04-16T19:32:55.136Z,41.73
2023-04-16T19:35:22.508Z,43.21
2023-04-16T19:37:49.241Z,43.21
2023-04-16T19:40:16.010Z,43.71
2023-04-16T19:42:42.777Z,42.96
2023-04-16T19:45:09.692Z,43.29
2023-04-16T19:47:36.654Z,43.30
2023-04-16T19:50:03.525Z,43.18
2023-04-16T19:52:30.345Z,42.92
2023-04-16T19:54:57.111Z,42.98
2023-04-16T19:57:23.929Z,43.10
2023-04-16T19:59:50.635Z,42.86
2023-04-16T20:02:17.321Z,43.06
2023-04-16T20:04:44.145Z,42.66
2023-04-16T20:07:10.892Z,42.97
2023-04-16T20:09:37.689Z,42.84
2023-04-16T20:12:04.570Z,43.04
2023-04-16T20:14:31.271Z,42.56
2023-04-16T20:16:58.220Z,42.92
2023-04-16T20:19:25.021Z,43.04
2023-04-16T20:21:51.970Z,42.33
2023-04-16T20:24:18.774Z,42.59
2023-04-16T20:26:45.497Z,42.61
2023-04-16T20:29:12.475Z,42.65
2023-04-16T20:31:39.256Z,42.75
2023-04-16T20:34:06.032Z,42.32
2023-04-16T20:36:32.863Z,42.61
2023-04-16T20:38:59.599Z,42.36
2023-04-16T20:41:26.358Z,42.98
2023-04-16T20:43:53.133Z,42.59
2023-04-16T20:46:20.833Z,42.80
2023-04-16T20:48:49.278Z,42.67
2023-04-16T20:51:16.121Z,42.73
2023-04-16T20:53:42.886Z,42.61
2023-04-16T20:56:09.727Z,42.61
2023-04-16T20:58:36.525Z,42.51
2023-04-16T21:01:03.248Z,42.70
2023-04-16T21:03:30.131Z,43.53
2023-04-16T21:05:57.100Z,44.09
2023-04-16T21:08:23.970Z,44.01
2023-04-16T21:10:50.783Z,44.28
2023-04-16T21:13:17.501Z,44.33
2023-04-16T21:15:44.762Z,44.48
2023-04-16T21:18:11.541Z,44.67
2023-04-16T21:20:38.903Z,44.75
2023-04-16T21:23:05.768Z,45.07
2023-04-16T21:25:32.636Z,44.71
2023-04-16T21:27:59.332Z,44.07
2023-04-16T21:30:26.135Z,44.99
2023-04-16T21:32:52.992Z,44.43
2023-04-16T21:35:19.941Z,44.53
2023-04-16T21:37:46.805Z,44.66
2023-04-16T21:40:13.663Z,44.54
2023-04-16T21:42:40.365Z,44.45
2023-04-16T21:45:08.670Z,44.58
2023-04-16T21:47:35.632Z,44.43
2023-04-16T21:50:02.540Z,44.83
2023-04-16T21:52:29.355Z,44.86
2023-04-16T21:54:56.106Z,44.81
2023-04-16T21:57:22.853Z,44.56
2023-04-16T21:59:49.654Z,44.78
2023-04-16T22:02:16.525Z,44.83
2023-04-16T22:04:43.397Z,44.65
2023-04-16T22:07:10.152Z,44.65
2023-04-16T22:09:36.962Z,44.81
2023-04-16T22:12:04.244Z,44.62
2023-04-16T22:14:30.965Z,44.86
2023-04-16T22:16:57.916Z,44.69
2023-04-16T22:19:24.776Z,44.75
2023-04-16T22:21:51.609Z,44.69
2023-04-16T22:24:18.392Z,44.47
2023-04-16T22:26:45.127Z,44.42
2023-04-16T22:29:12.076Z,44.52
2023-04-16T22:31:39.012Z,44.28
2023-04-16T22:34:05.820Z,44.43
2023-04-16T22:36:32.582Z,44.57
2023-04-16T22:38:59.365Z,44.12
2023-04-16T22:41:26.079Z,44.21
2023-04-16T22:43:52.812Z,44.65
2023-04-16T22:46:19.653Z,44.58
2023-04-16T22:48:46.525Z,44.53
2023-04-16T22:51:13.386Z,44.21
2023-04-16T22:53:40.110Z,44.71
2023-04-16T22:56:07.141Z,44.67
2023-04-16T22:58:33.922Z,44.17
2023-04-16T23:01:00.648Z,44.54
2023-04-16T23:03:27.473Z,44.47
2023-04-16T23:05:54.378Z,44.66
2023-04-16T23:08:21.222Z,44.27
2023-04-16T23:10:48.055Z,44.44
2023-04-16T23:13:14.863Z,44.69
2023-04-16T23:15:41.708Z,44.33
2023-04-16T23:18:08.578Z,44.08
2023-04-16T23:20:35.420Z,44.48
2023-04-16T23:23:02.143Z,44.26
2023-04-16T23:25:28.901Z,44.58
2023-04-16T23:27:55.674Z,44.16
2023-04-16T23:30:22.763Z,44.01
2023-04-16T23:32:49.646Z,44.24
2023-04-16T23:35:16.507Z,44.15
2023-04-16T23:37:43.301Z,44.23
2023-04-16T23:40:10.593Z,43.96
2023-04-16T23:42:37.449Z,44.01
2023-04-16T23:45:04.522Z,43.93
2023-04-16T23:47:31.381Z,43.87
2023-04-16T23:49:58.210Z,43.88
2023-04-16T23:52:24.974Z,43.74
2023-04-16T23:54:51.749Z,43.95
2023-04-16T23:57:20.546Z,43.93
2023-04-16T23:59:47.407Z,44.02
